Portada
METAR-TAF:

METAR-TAF

Aeropuertos :

Granada, España

Aeropuerto de Granada

latitud: 37-11N, longitud: 003-47W, altitud: 567 m

Observación

El informe se hizo hace 42 minutos, a las 07:30 UTC
Viento calma
Temperatura 7°C
Humedad 93%
Presión 1027 hPa
Visibilidad 10 km o más
sin nubes por debajo de 1500 m y sin presencia de cumulonimbus.

METAR: LEGR 280730Z 00000KT CAVOK 07/06 Q1027

Hora: 10:12 (08:12 UTC)

Pronóstico

El informe se hizo hace 6 horas y 12 minutos, a las 02:00 UTC
Pronóstico válido del 28 a las 03 UTC al 29 a las 03 UTC
Viento 3 kt con dirección variable
Visibilidad 10 km o más
Escasas nubes a una altura de 3500 ft
Probabilidad 40% :
Temporalmente
del 28 a las 03 UTC al 28 a las 07 UTC
Visibilidad: 4000 m
neblina

TAF: LEGR 280200Z 2803/2903 VRB03KT 9999 FEW035 TX22/2814Z TN04/2806Z PROB40 TEMPO 2803/2807 4000 BR

Observaciones y pronósticos meteorológicos de más de 4000 aeropuertos (mensajes METAR y TAF).

Los puntos amarillos y rojos representan las estaciones disponibles.

Ponga el ratón en el punto deseado para ver el nombre de la estación.

Haga clic para ver las observaciones y los pronósticos meteorológicos.

Para cambiar el mapa : haga clic en los botones verdes con una cruz de color negro para hacer un zoom, en el botón verde con un guión para alejar o en las flechas verdes para mapas adyacentes.


METAR-TAF: